Time;durP1;ratioP1;P1;durP2;ratioP2;P2;SDS_P1;SDS_P2;PMS_P1;PMS_P2;Temp;Humidity;BMP_temperature;BMP_pressure;BME280_temperature;BME280_humidity;BME280_pressure;Samples;Min_cycle;Max_cycle;Signal;HPM_P1;HPM_P2
2022/07/07 05:26:34;;;;;;;17.90;11.95;;;;;;;22.05;88.83;99867.78;1737599;81;21113;-38
2022/07/07 05:29:01;;;;;;;17.48;13.53;;;;;;;22.16;88.59;99865.91;1704395;83;21043;-46
2022/07/07 05:31:28;;;;;;;32.45;14.18;;;;;;;22.26;88.16;99864.91;1700296;83;21029;-38
2022/07/07 05:33:55;;;;;;;18.30;13.53;;;;;;;22.34;86.75;99864.50;1767508;80;21015;-46
2022/07/07 05:36:22;;;;;;;18.35;14.53;;;;;;;22.40;86.85;99865.50;1766614;80;21006;-37
2022/07/07 05:38:49;;;;;;;20.80;13.95;;;;;;;22.46;86.00;99862.02;1765972;80;21034;-46
2022/07/07 05:41:16;;;;;;;19.37;15.10;;;;;;;22.50;85.63;99868.05;1761158;80;21438;-37
2022/07/07 05:43:43;;;;;;;16.15;14.30;;;;;;;22.53;85.70;99866.52;1766505;80;21037;-38
2022/07/07 05:46:09;;;;;;;17.05;14.85;;;;;;;22.58;85.34;99867.12;1767177;80;21011;-38
2022/07/07 05:48:36;;;;;;;23.22;14.85;;;;;;;22.65;85.78;99868.49;1770226;80;21034;-39
2022/07/07 05:51:05;;;;;;;22.20;16.42;;;;;;;22.71;85.00;99865.95;1768280;80;20974;-46
2022/07/07 05:53:32;;;;;;;23.42;15.58;;;;;;;22.74;84.15;99879.13;1769350;80;21066;-37
2022/07/07 05:55:59;;;;;;;18.15;15.13;;;;;;;22.71;84.04;99877.48;1767334;80;21309;-46
2022/07/07 05:58:25;;;;;;;25.08;16.32;;;;;;;22.70;84.23;99871.77;1767309;80;21078;-46
2022/07/07 06:00:52;;;;;;;17.77;15.55;;;;;;;22.71;84.00;99869.95;1770084;80;21450;-37
2022/07/07 06:03:19;;;;;;;24.18;15.28;;;;;;;22.71;84.07;99868.62;1760483;80;21568;-46
2022/07/07 06:05:45;;;;;;;21.55;15.10;;;;;;;22.75;84.29;99869.70;1759731;80;21398;-46
2022/07/07 06:08:14;;;;;;;17.32;13.50;;;;;;;22.81;84.11;99873.34;1763492;80;21093;-46
2022/07/07 06:10:41;;;;;;;23.70;15.88;;;;;;;22.92;83.66;99875.91;1763622;80;21274;-47
2022/07/07 06:13:08;;;;;;;20.32;16.35;;;;;;;22.97;83.21;99872.04;1756323;80;21454;-47
2022/07/07 06:15:35;;;;;;;19.52;15.90;;;;;;;23.04;82.88;99874.73;1759002;80;20970;-46
2022/07/07 06:18:03;;;;;;;19.00;16.35;;;;;;;23.10;82.67;99870.84;1766136;80;21029;-46
2022/07/07 06:20:30;;;;;;;22.17;16.12;;;;;;;23.17;82.37;99870.00;1759847;80;20959;-46
2022/07/07 06:22:57;;;;;;;21.20;16.05;;;;;;;23.20;82.24;99876.03;1765143;80;20999;-46
2022/07/07 06:25:24;;;;;;;24.23;16.07;;;;;;;23.27;82.01;99881.39;1768945;80;21011;-46
2022/07/07 06:27:50;;;;;;;17.52;15.72;;;;;;;23.52;81.58;99889.27;1764741;80;21680;-47
2022/07/07 06:30:16;;;;;;;20.72;15.75;;;;;;;23.52;81.58;99889.27;1765690;80;20954;-37
2022/07/07 06:32:43;;;;;;;20.05;15.90;;;;;;;23.64;80.36;99891.23;1766637;80;21057;-38
2022/07/07 06:35:10;;;;;;;17.15;14.05;;;;;;;23.73;79.51;99887.16;1772505;80;21455;-46
2022/07/07 06:37:37;;;;;;;19.27;17.02;;;;;;;23.79;79.38;99883.63;1777560;80;21420;-46
2022/07/07 06:40:04;;;;;;;17.92;16.02;;;;;;;23.89;79.62;99887.47;1767412;80;20931;-37
2022/07/07 06:42:31;;;;;;;20.88;17.05;;;;;;;24.01;79.49;99890.34;1772249;80;21027;-46
2022/07/07 06:45:03;;;;;;;19.95;16.37;;;;;;;24.10;78.53;99890.60;1744676;80;21501;-38
2022/07/07 06:47:30;;;;;;;19.07;16.45;;;;;;;24.11;76.87;99886.12;1766031;81;20998;-37
2022/07/07 06:49:57;;;;;;;20.05;15.32;;;;;;;24.11;76.87;99886.12;1762936;81;20958;-37
2022/07/07 06:52:24;;;;;;;21.37;15.75;;;;;;;24.03;76.97;99902.63;1761315;81;21018;-46
2022/07/07 06:54:52;;;;;;;17.98;14.07;;;;;;;24.03;76.97;99902.63;1762090;81;21534;-46
2022/07/07 06:57:18;;;;;;;17.92;15.43;;;;;;;24.00;77.13;99908.16;1762701;81;21453;-46
2022/07/07 06:59:45;;;;;;;16.90;14.98;;;;;;;23.99;77.34;99904.25;1698348;84;21023;-38
2022/07/07 07:02:12;;;;;;;21.15;14.60;;;;;;;23.98;77.82;99902.05;1698252;84;21046;-46
2022/07/07 07:04:39;;;;;;;16.07;14.40;;;;;;;24.00;77.50;99909.48;1698611;84;20991;-46
2022/07/07 07:07:05;;;;;;;23.00;13.30;;;;;;;24.03;77.07;99920.00;1711071;83;21071;-46
2022/07/07 07:09:34;;;;;;;15.40;12.75;;;;;;;23.98;76.39;99911.89;1751988;82;21501;-46
2022/07/07 07:12:01;;;;;;;23.92;14.55;;;;;;;23.88;76.93;99910.24;1743515;82;21059;-38
2022/07/07 07:14:27;;;;;;;19.27;14.43;;;;;;;23.80;78.08;99920.06;1743545;82;21099;-38
2022/07/07 07:16:54;;;;;;;16.77;14.28;;;;;;;23.77;77.37;99928.73;1736529;82;21031;-37
2022/07/07 07:19:22;;;;;;;17.32;14.45;;;;;;;23.75;77.38;99930.16;1703842;82;21127;-39
2022/07/07 07:21:49;;;;;;;20.68;15.45;;;;;;;23.75;77.38;99930.16;1741170;80;20999;-46
2022/07/07 07:24:16;;;;;;;18.82;15.32;;;;;;;23.71;78.17;99934.44;1757987;80;21068;-46
2022/07/07 07:26:43;;;;;;;19.65;15.18;;;;;;;23.68;78.22;99934.16;1731187;81;21030;-46
2022/07/07 07:29:09;;;;;;;17.77;13.08;;;;;;;23.57;78.01;99929.42;1753097;81;21031;-46
2022/07/07 07:31:37;;;;;;;21.82;14.23;;;;;;;23.50;78.64;99929.41;1759337;81;20982;-46
2022/07/07 07:34:03;;;;;;;23.00;19.12;;;;;;;23.43;79.65;99932.06;1774651;80;21074;-46
2022/07/07 07:36:30;;;;;;;23.75;17.48;;;;;;;23.43;79.65;99932.06;1781305;80;21522;-46
2022/07/07 07:38:58;;;;;;;17.48;15.50;;;;;;;23.37;79.90;99929.76;1768723;80;21026;-46
2022/07/07 07:41:25;;;;;;;20.95;14.45;;;;;;;23.34;79.90;99937.45;1764116;80;21006;-46
2022/07/07 07:43:51;;;;;;;18.40;14.93;;;;;;;23.32;79.98;99944.70;1759494;80;21157;-47
2022/07/07 07:46:19;;;;;;;17.05;14.93;;;;;;;23.27;80.00;99950.77;1760645;80;21474;-46
2022/07/07 07:48:46;;;;;;;22.30;14.53;;;;;;;23.20;80.56;99954.75;1769529;80;21518;-46
2022/07/07 07:51:13;;;;;;;22.62;15.90;;;;;;;23.17;81.09;99954.05;1753140;80;21442;-47
2022/07/07 07:53:39;;;;;;;18.25;15.83;;;;;;;23.14;80.93;99951.10;1753885;80;21112;-46
2022/07/07 07:56:08;;;;;;;23.42;16.07;;;;;;;23.10;81.40;99952.22;1756452;80;20994;-37
2022/07/07 07:58:35;;;;;;;22.52;15.25;;;;;;;23.05;82.14;99951.61;1764899;80;21033;-38
2022/07/07 08:01:04;;;;;;;21.30;16.17;;;;;;;22.97;83.06;99954.73;1757704;80;20946;-38
2022/07/07 08:03:32;;;;;;;19.48;15.35;;;;;;;22.89;83.46;99952.94;1765850;80;21505;-37
2022/07/07 08:05:59;;;;;;;20.62;15.85;;;;;;;22.82;83.95;99947.06;1758372;80;21013;-39
2022/07/07 08:08:26;;;;;;;19.62;15.68;;;;;;;22.77;84.48;99945.60;1767394;80;21572;-38
2022/07/07 08:10:54;;;;;;;28.50;16.95;;;;;;;22.73;85.33;99945.38;1767906;80;20989;-37
2022/07/07 08:13:21;;;;;;;20.20;17.15;;;;;;;22.68;86.46;99938.98;1743788;81;21022;-38
2022/07/07 08:15:48;;;;;;;24.23;16.55;;;;;;;22.61;87.64;99941.58;1762362;80;21517;-38
2022/07/07 08:18:16;;;;;;;22.07;17.87;;;;;;;22.49;88.35;99936.93;1761120;80;21113;-38
2022/07/07 08:20:42;;;;;;;20.45;16.73;;;;;;;22.41;88.44;99949.83;1766422;80;20955;-38
2022/07/07 08:23:10;;;;;;;21.48;16.85;;;;;;;22.34;89.35;99952.44;1757554;80;21431;-38
2022/07/07 08:25:38;;;;;;;22.00;16.80;;;;;;;22.31;90.00;99959.64;1766725;80;21054;-47
2022/07/07 08:28:04;;;;;;;23.52;17.55;;;;;;;22.30;90.94;99957.92;1766665;80;21387;-38
2022/07/07 08:30:31;;;;;;;23.52;17.00;;;;;;;22.32;91.49;99961.83;1770814;80;20944;-38
2022/07/07 08:32:58;;;;;;;31.25;19.45;;;;;;;22.33;92.10;99950.25;1758796;80;21003;-38
2022/07/07 08:35:25;;;;;;;26.65;18.40;;;;;;;22.34;93.12;99939.11;1768668;80;20955;-47
2022/07/07 08:37:52;;;;;;;25.80;18.48;;;;;;;22.30;92.33;99933.94;1755672;80;21592;-38
2022/07/07 08:40:19;;;;;;;24.35;19.10;;;;;;;22.26;93.11;99930.18;1762105;80;20955;-38
2022/07/07 08:42:46;;;;;;;22.50;18.92;;;;;;;22.23;93.36;99933.03;1775281;80;21015;-47
2022/07/07 08:45:13;;;;;;;23.18;19.98;;;;;;;22.19;93.00;99936.31;1763748;80;21543;-47
2022/07/07 08:47:40;;;;;;;31.07;20.43;;;;;;;22.18;92.43;99955.91;1759732;80;21571;-47
2022/07/07 08:50:08;;;;;;;24.35;19.20;;;;;;;22.16;92.10;99983.12;1693036;83;21026;-39
2022/07/07 08:52:35;;;;;;;24.15;18.23;;;;;;;22.21;92.22;100000.20;1690336;83;21410;-39
2022/07/07 08:55:01;;;;;;;22.25;18.20;;;;;;;22.27;91.86;100006.06;1706714;83;20967;-47
2022/07/07 08:57:28;;;;;;;24.37;18.20;;;;;;;22.35;92.09;100008.78;1765607;80;21034;-47
2022/07/07 08:59:56;;;;;;;27.40;19.40;;;;;;;22.41;92.07;100013.78;1772103;80;21414;-47
2022/07/07 09:02:26;;;;;;;22.13;18.73;;;;;;;22.41;90.52;100010.64;1774385;80;20963;-47
2022/07/07 09:04:53;;;;;;;23.75;18.75;;;;;;;22.42;90.90;100008.84;1780650;80;21009;-39
2022/07/07 09:07:20;;;;;;;25.30;20.90;;;;;;;22.42;91.40;100018.17;1761637;80;20970;-40
2022/07/07 09:09:55;;;;;;;34.25;22.37;;;;;;;22.39;90.84;100016.54;1768289;80;21426;-47
2022/07/07 09:12:23;;;;;;;36.13;25.37;;;;;;;22.36;90.53;100010.03;1768670;80;20958;-47
2022/07/07 09:14:52;;;;;;;34.33;25.70;;;;;;;22.34;90.22;99995.94;1781211;80;21018;-47
2022/07/07 09:17:32;;;;;;;33.67;24.20;;;;;;;22.27;91.13;99982.55;1767971;80;20986;-40
2022/07/07 09:20:06;;;;;;;35.08;24.50;;;;;;;22.22;91.93;99998.78;1706729;83;21041;-47
2022/07/07 09:22:54;;;;;;;33.28;23.95;;;;;;;22.19;92.56;100008.72;1751679;80;21096;-47
2022/07/07 09:25:25;;;;;;;38.98;25.20;;;;;;;22.16;93.02;100012.42;1684763;83;21030;-39
2022/07/07 09:28:05;;;;;;;;;;;;;;;22.20;93.55;100016.63;1757989;80;21068;-39
2022/07/07 09:30:40;;;;;;;39.48;24.57;;;;;;;22.22;93.54;100024.56;1746719;82;20571;-39
2022/07/07 09:33:12;;;;;;;38.28;26.57;;;;;;;22.18;93.08;100026.52;1749258;81;21048;-39
2022/07/07 09:38:28;;;;;;;49.25;28.75;;;;;;;22.09;94.23;100024.31;1750899;81;21041;-47
2022/07/07 09:41:10;;;;;;;42.35;29.00;;;;;;;22.02;95.12;100018.41;1758424;81;21074;-38
2022/07/07 09:43:45;;;;;;;45.13;30.33;;;;;;;21.96;95.99;100019.20;1762667;81;21089;-38
2022/07/07 09:46:19;;;;;;;39.35;28.50;;;;;;;21.88;96.58;100020.08;1761352;81;21264;-38
2022/07/07 09:48:57;;;;;;;47.62;32.28;;;;;;;21.81;97.86;100016.01;1757893;81;21065;-47
2022/07/07 09:51:32;;;;;;;46.30;32.50;;;;;;;21.76;99.34;100009.11;1767415;80;20986;-47
2022/07/07 09:54:05;;;;;;;43.83;32.13;;;;;;;21.70;100.00;100017.41;1761411;81;21085;-46
2022/07/07 09:56:46;;;;;;;40.83;31.52;;;;;;;21.63;100.00;100012.00;1761902;81;20990;-46
2022/07/07 09:59:15;;;;;;;50.43;33.45;;;;;;;21.58;100.00;100011.36;1761959;81;21609;-46
2022/07/07 10:01:43;;;;;;;43.28;31.27;;;;;;;21.52;100.00;100013.00;1761862;81;20971;-37
2022/07/07 10:04:17;;;;;;;44.53;35.20;;;;;;;21.47;100.00;100006.57;1761920;81;21049;-37
2022/07/07 10:06:43;;;;;;;51.18;36.25;;;;;;;21.44;100.00;100016.02;1762449;81;21548;-46
2022/07/07 10:09:20;;;;;;;44.35;34.92;;;;;;;21.43;100.00;100012.11;1762143;81;21042;-38
2022/07/07 10:11:52;;;;;;;45.70;36.17;;;;;;;21.40;100.00;100008.29;1758533;81;21032;-46
2022/07/07 10:14:29;;;;;;;50.98;35.95;;;;;;;21.37;100.00;100003.10;1739058;81;21134;-46
2022/07/07 10:16:55;;;;;;;40.17;32.10;;;;;;;21.33;100.00;99984.22;1737670;81;21009;-47
2022/07/07 10:19:24;;;;;;;36.13;29.63;;;;;;;21.28;100.00;99969.81;1753951;81;21050;-47
2022/07/07 10:21:53;;;;;;;33.38;27.67;;;;;;;21.22;100.00;99952.79;1762399;81;20998;-47
2022/07/07 10:24:23;;;;;;;45.88;33.35;;;;;;;21.17;100.00;99940.22;1761975;81;21069;-46
2022/07/07 10:26:59;;;;;;;46.18;33.42;;;;;;;21.10;100.00;99931.65;1737210;81;21041;-47
2022/07/07 10:29:48;;;;;;;50.03;35.15;;;;;;;21.03;100.00;99922.25;1776115;81;21581;-47
2022/07/07 10:32:30;;;;;;;41.28;31.87;;;;;;;20.97;100.00;99919.89;1755810;81;20983;-38
2022/07/07 10:34:59;;;;;;;48.08;35.88;;;;;;;20.96;100.00;99919.51;1766296;81;21050;-38
2022/07/07 10:37:27;;;;;;;44.53;32.00;;;;;;;21.01;100.00;99926.80;1766486;81;20978;-38
2022/07/07 10:39:56;;;;;;;37.35;30.88;;;;;;;20.99;100.00;99926.88;1766171;81;21081;-38
2022/07/07 10:42:49;;;;;;;36.80;26.82;;;;;;;20.96;100.00;99928.34;1761862;81;20975;-47
2022/07/07 10:45:16;;;;;;;35.73;24.82;;;;;;;20.95;100.00;99931.08;1759912;81;20987;-38
2022/07/07 10:47:43;;;;;;;28.73;21.62;;;;;;;20.92;100.00;99948.50;1765364;81;21045;-38
2022/07/07 10:50:30;;;;;;;25.68;21.57;;;;;;;20.92;100.00;99957.80;1765951;81;21022;-37
2022/07/07 10:52:57;;;;;;;28.67;23.47;;;;;;;20.92;100.00;99969.30;1765975;81;21601;-37
2022/07/07 10:55:52;;;;;;;37.17;24.37;;;;;;;20.98;100.00;99970.80;1766032;81;21066;-38
2022/07/07 10:58:48;;;;;;;33.13;23.35;;;;;;;21.03;100.00;99978.10;1766461;81;21018;-38
2022/07/07 11:01:14;;;;;;;32.17;22.00;;;;;;;21.00;100.00;99974.27;1765602;81;21054;-47
2022/07/07 11:03:43;;;;;;;32.25;21.25;;;;;;;20.96;100.00;99983.33;1760550;81;21038;-47
2022/07/07 11:06:09;;;;;;;36.80;23.15;;;;;;;20.92;100.00;99981.27;1760547;81;21525;-47
2022/07/07 11:08:37;;;;;;;34.25;21.45;;;;;;;20.91;100.00;99975.56;1772676;81;21127;-47
2022/07/07 11:11:04;;;;;;;30.82;22.05;;;;;;;20.88;100.00;99981.04;1773664;81;21011;-39
2022/07/07 11:13:38;;;;;;;28.70;21.02;;;;;;;20.84;100.00;99984.77;1762160;81;21129;-39
2022/07/07 11:16:19;;;;;;;29.32;22.40;;;;;;;20.82;100.00;99981.33;1760671;81;21081;-38
2022/07/07 11:18:52;;;;;;;33.45;21.30;;;;;;;20.83;100.00;99984.38;1766468;81;21093;-38
2022/07/07 11:21:18;;;;;;;27.77;21.07;;;;;;;20.82;100.00;99991.11;1766071;81;21034;-47
2022/07/07 11:23:52;;;;;;;27.13;22.22;;;;;;;20.82;100.00;99991.11;1740958;81;21133;-47
2022/07/07 11:26:25;;;;;;;31.93;22.60;;;;;;;20.80;100.00;99988.97;1770758;80;21994;-38
2022/07/07 11:28:56;;;;;;;34.73;23.95;;;;;;;20.76;100.00;99990.03;1765886;81;21569;-38
2022/07/07 11:31:23;;;;;;;25.72;21.25;;;;;;;20.73;100.00;100005.67;1685132;83;21455;-47
2022/07/07 11:33:54;;;;;;;32.65;23.52;;;;;;;20.70;100.00;100027.09;1658141;86;21109;-38
2022/07/07 11:36:24;;;;;;;30.12;22.82;;;;;;;20.72;100.00;100030.53;1687975;84;21003;-39
2022/07/07 11:39:02;;;;;;;26.70;21.35;;;;;;;20.77;100.00;100026.34;1714278;83;21089;-48
2022/07/07 11:41:42;;;;;;;19.87;17.67;;;;;;;20.81;100.00;100030.56;1755975;81;21490;-39
2022/07/07 11:44:21;;;;;;;22.82;18.17;;;;;;;20.87;100.00;100032.93;1770864;81;21521;-39
2022/07/07 11:46:51;;;;;;;25.37;18.95;;;;;;;20.86;100.00;100025.42;1764403;81;20982;-37
2022/07/07 11:49:19;;;;;;;28.52;19.35;;;;;;;20.85;100.00;100031.69;1745240;81;21061;-46
2022/07/07 11:51:46;;;;;;;30.10;20.48;;;;;;;20.85;100.00;100018.39;1766450;81;20966;-45
2022/07/07 11:54:13;;;;;;;25.20;17.82;;;;;;;20.82;100.00;100015.89;1769796;80;21042;-37
2022/07/07 11:56:40;;;;;;;26.00;17.02;;;;;;;20.77;100.00;100011.25;1773567;81;21070;-36
2022/07/07 11:59:07;;;;;;;22.15;16.17;;;;;;;20.71;100.00;100012.39;1773579;81;21118;-46
2022/07/07 12:01:36;;;;;;;19.67;15.75;;;;;;;20.69;100.00;100002.28;1771993;81;21045;-37
2022/07/07 12:04:15;;;;;;;19.48;15.95;;;;;;;20.70;100.00;100004.03;1768017;81;21687;-36
2022/07/07 12:06:43;;;;;;;24.10;17.98;;;;;;;20.73;100.00;100000.36;1767501;81;21030;-37
2022/07/07 12:09:11;;;;;;;24.00;17.15;;;;;;;20.73;100.00;100003.88;1766138;81;21589;-38
2022/07/07 12:11:41;;;;;;;26.87;18.92;;;;;;;20.75;100.00;100010.44;1700742;84;21069;-47
2022/07/07 12:14:10;;;;;;;27.17;21.62;;;;;;;20.82;100.00;100004.40;1769150;81;21118;-38
2022/07/07 12:16:46;;;;;;;35.65;25.48;;;;;;;20.89;100.00;100001.84;1771442;81;21017;-47
2022/07/07 12:19:13;;;;;;;36.35;25.27;;;;;;;20.83;100.00;100002.98;1765793;81;21577;-47
2022/07/07 12:21:48;;;;;;;34.88;26.50;;;;;;;20.73;100.00;99995.90;1765989;81;21017;-38
2022/07/07 12:24:17;;;;;;;40.23;27.02;;;;;;;20.65;100.00;99995.41;1766046;81;21058;-38
2022/07/07 12:26:48;;;;;;;38.70;29.23;;;;;;;20.59;100.00;99991.70;1765630;81;21573;-47
2022/07/07 12:29:20;;;;;;;41.00;31.85;;;;;;;20.53;100.00;99993.78;1766252;81;21117;-39
2022/07/07 12:31:48;;;;;;;;;;;;;;;20.46;100.00;99989.19;1696465;84;21018;-48
2022/07/07 12:34:20;;;;;;;39.70;31.48;;;;;;;20.44;100.00;99984.39;1699716;84;20127;-40
2022/07/07 12:36:48;;;;;;;46.08;31.62;;;;;;;20.40;100.00;99984.12;1758533;81;21509;-48
2022/07/07 12:39:15;;;;;;;39.50;30.32;;;;;;;20.39;100.00;99993.89;1777799;81;21643;-48
